Date,TemperatureHighF,TemperatureAvgF,TemperatureLowF,DewpointHighF,DewpointAvgF,DewpointLowF,HumidityHigh,HumidityAvg,HumidityLow,PressureMaxIn,PressureMinIn,WindSpeedMaxMPH,WindSpeedAvgMPH,GustSpeedMaxMPH,PrecipitationSumIn
2013-1-1,50,45,38,42,34,17,91,66,33,30.17,29.97,13,1,13,0.03
2013-1-2,42,38,32,38,28,16,93,67,42,30.28,30.02,13,2,13,0.00
2013-1-3,44,34,24,28,22,16,85,62,33,30.34,30.24,11,1,11,0.00
2013-1-4,43,35,27,23,20,18,72,55,40,30.39,30.29,15,3,15,0.00
2013-1-5,50,38,29,35,23,18,87,56,31,30.48,30.30,18,1,18,0.00
2013-1-6,50,41,27,35,30,25,92,67,47,30.31,30.14,14,2,14,0.01
2013-1-7,47,37,25,29,25,22,89,63,41,30.54,30.25,16,2,16,0.00
2013-1-8,54,33,19,36,27,16,93,79,49,30.56,30.45,9,0,9,0.00
2013-1-9,60,44,27,48,37,25,95,80,51,30.53,30.43,11,1,11,0.00
2013-1-10,54,47,38,36,32,29,73,56,45,30.55,30.50,9,1,9,0.00
2013-1-11,41,40,40,39,39,36,96,93,86,30.44,30.22,3,0,3,0.04
2013-1-12,73,53,39,60,49,38,97,88,62,30.25,30.16,5,0,5,0.00
2013-1-13,70,58,53,61,56,51,97,90,69,30.17,30.05,13,0,13,0.00
2013-1-14,58,55,47,57,53,45,97,93,82,30.30,30.07,14,1,14,0.60
2013-1-15,47,41,38,45,40,37,96,95,91,30.35,30.19,8,0,8,1.72
2013-1-16,49,41,37,46,40,36,97,94,81,30.20,30.03,15,1,15,0.38
2013-1-17,48,39,33,44,36,31,96,90,77,30.25,30.07,13,2,13,1.11
2013-1-18,40,33,24,32,24,17,93,70,42,30.61,30.24,20,2,20,0.04
2013-1-19,52,33,20,33,26,18,95,77,32,30.56,30.19,11,1,11,0.01
2013-1-20,55,44,26,33,27,22,94,55,32,30.20,30.05,23,3,23,0.00
2013-1-21,52,38,24,27,19,4,88,52,25,30.17,29.94,28,3,28,0.00
2013-1-22,31,24,18,8,-1,-5,52,34,25,30.39,30.07,20,4,20,0.00
2013-1-23,33,25,15,20,6,-3,72,44,25,30.45,30.14,16,2,16,0.00
2013-1-24,33,26,19,20,7,-1,64,46,30,30.63,30.09,26,4,26,0.00
2013-1-25,23,20,15,20,13,2,89,77,48,30.62,30.18,12,1,12,0.00
2013-1-26,40,30,19,26,21,16,93,69,53,30.52,30.17,15,2,15,0.09
2013-1-27,34,28,17,26,21,14,90,76,64,30.70,30.52,12,1,12,0.00
2013-1-28,52,38,30,43,34,26,95,88,67,30.57,30.26,5,0,5,0.16
2013-1-29,73,51,34,52,43,32,97,76,45,30.28,30.07,12,1,12,0.00
2013-1-30,65,58,46,62,56,44,97,92,83,30.08,29.39,22,3,22,3.36
2013-1-31,54,39,29,49,24,16,90,56,40,30.02,29.43,21,6,25,0.02
2013-2-1,37,25,17,31,10,1,86,55,38,30.49,29.89,38,4,38,0.00
2013-2-2,34,24,13,26,16,7,88,72,42,30.49,30.11,13,1,13,0.00
2013-2-3,40,34,27,27,23,17,91,65,52,30.12,29.93,25,4,25,0.00
2013-2-4,39,30,23,24,18,12,88,63,48,30.22,30.04,25,2,25,0.00
2013-2-5,52,38,25,38,30,22,92,75,51,30.05,29.98,22,2,22,0.00
2013-2-6,52,40,26,33,28,24,95,64,36,30.41,30.04,14,2,14,0.00
2013-2-7,39,36,28,31,29,24,94,77,69,30.47,30.21,8,1,8,0.02
2013-2-8,51,38,32,42,32,24,95,79,57,30.21,29.91,31,3,31,0.52
2013-2-9,48,36,25,24,18,14,81,51,27,30.45,30.14,30,4,30,0.00
2013-2-10,47,34,21,35,22,16,93,66,37,30.59,30.31,10,1,10,0.06
2013-2-11,62,47,36,50,39,21,96,77,28,30.32,29.94,21,2,21,0.04
2013-2-12,58,48,40,33,25,18,69,42,25,30.11,29.97,25,4,25,0.00
2013-2-13,41,40,39,34,31,29,77,72,66,30.01,29.91,2,0,2,0.00
2013-2-14,51,41,28,31,28,24,90,62,37,30.13,30.03,11,1,11,0.00
2013-2-15,59,40,24,39,30,22,94,71,31,30.17,29.99,19,2,19,0.00
2013-2-16,39,35,27,29,20,12,67,55,43,30.09,29.93,19,3,19,0.00
2013-2-17,31,25,20,19,6,2,74,45,31,30.36,30.00,25,5,25,0.00
2013-2-18,52,31,13,24,16,8,86,59,28,30.49,30.27,11,1,11,0.00
2013-2-19,55,39,27,40,27,14,91,65,29,30.27,29.87,21,3,21,0.01
2013-2-20,44,36,30,16,12,9,49,37,24,30.26,30.03,24,5,24,0.00
2013-2-21,49,36,23,24,16,12,68,44,26,30.38,30.21,16,2,16,0.00
2013-2-22,38,34,30,29,24,18,81,67,44,30.44,30.24,14,1,14,0.01
2013-2-23,53,40,33,42,35,28,94,82,64,30.25,29.89,8,0,8,0.02
2013-2-24,55,45,34,39,28,20,96,54,28,30.16,29.88,19,3,19,0.00
2013-2-25,41,32,25,26,22,20,85,69,45,30.31,30.15,8,1,8,0.00
2013-2-26,41,35,26,40,31,21,96,86,64,30.29,29.71,12,1,12,0.82
2013-2-27,52,44,37,39,34,31,96,71,50,29.84,29.67,18,3,18,0.01
2013-2-28,43,39,37,32,27,24,71,62,50,29.92,29.76,11,3,19,0.00
2013-3-1,41,38,34,28,25,22,77,60,52,30.00,29.88,15,2,15,0.00
2013-3-2,36,34,31,23,20,17,62,56,51,30.02,29.94,16,3,16,0.00
2013-3-3,37,31,27,19,16,11,62,54,44,30.09,29.97,25,5,25,0.00
2013-3-4,48,34,26,20,12,8,71,43,20,30.20,30.08,20,3,20,0.00
2013-3-5,49,38,29,35,30,19,94,75,47,30.17,29.71,10,1,11,0.69
2013-3-6,42,36,32,32,29,27,95,76,62,30.17,29.69,33,5,33,0.27
2013-3-7,43,39,36,29,27,23,69,61,50,30.34,30.16,23,4,23,0.00
2013-3-8,50,42,37,27,24,21,64,51,36,30.42,30.28,25,4,25,0.00
2013-3-9,61,45,33,32,28,24,81,52,28,30.44,30.32,14,2,14,0.00
2013-3-10,64,46,28,36,31,24,89,60,31,30.40,30.26,11,1,11,0.00
2013-3-11,59,46,34,51,38,29,85,73,43,30.29,29.95,14,1,14,0.00
2013-3-12,59,52,38,53,42,29,96,72,47,30.07,29.78,16,3,16,0.78
2013-3-13,46,36,31,30,24,16,88,61,38,30.25,30.04,22,4,22,0.00
2013-3-14,47,36,29,20,16,13,63,46,28,30.34,30.22,30,5,30,0.00
2013-3-15,64,45,23,36,27,15,84,51,34,30.26,29.93,15,2,15,0.00
2013-3-16,76,55,35,52,43,31,95,68,35,29.93,29.64,24,2,24,0.05
2013-3-17,58,42,35,48,39,34,94,91,70,30.29,29.89,9,1,9,0.60
2013-3-18,35,33,32,34,32,30,95,94,92,30.33,30.00,9,1,9,0.28
2013-3-19,59,45,32,42,24,0,97,53,15,30.12,29.89,30,5,30,0.00
2013-3-20,54,42,26,25,14,2,80,35,17,30.15,29.86,17,3,17,0.00
2013-3-21,40,31,26,27,13,7,67,48,35,30.09,29.86,23,5,23,0.00
2013-3-22,29,26,24,20,13,9,76,59,50,30.12,30.08,11,2,13,0.00
2013-3-23,56,40,25,29,23,17,82,56,26,30.15,29.99,11,1,11,0.00
2013-3-24,42,34,30,32,28,22,94,78,46,30.04,29.68,9,1,12,0.17
2013-3-25,42,35,28,35,27,22,96,75,47,29.86,29.64,22,3,22,0.59
2013-3-26,44,39,36,29,26,23,66,59,44,30.20,29.85,17,4,17,0.00
2013-3-27,44,38,31,28,24,22,76,57,44,30.32,30.20,18,4,19,0.00
2013-3-28,50,41,31,28,24,21,79,52,36,30.37,30.28,19,4,19,0.00
2013-3-29,58,41,27,32,26,19,88,60,25,30.41,30.25,14,2,14,0.00
2013-3-30,63,44,27,35,30,24,91,62,28,30.34,30.15,14,1,14,0.00
2013-3-31,60,47,41,52,42,32,95,83,66,30.16,29.84,10,0,10,0.30
2013-4-1,62,51,35,45,38,27,95,63,45,30.09,29.90,20,4,21,0.00
2013-4-2,52,41,26,29,20,10,88,49,19,30.26,30.09,16,3,16,0.00
2013-4-3,55,41,25,26,17,8,80,42,16,30.43,30.26,16,3,17,0.00
2013-4-4,43,35,29,32,23,12,95,63,30,30.49,30.10,11,1,11,0.34
2013-4-5,64,46,33,43,34,27,96,70,26,30.12,29.98,15,2,15,0.40
2013-4-6,61,49,33,36,31,24,89,53,29,30.35,30.12,11,2,11,0.00
2013-4-7,72,53,34,46,39,29,92,62,37,30.32,30.10,16,2,16,0.00
2013-4-8,79,59,40,52,46,38,95,66,31,30.19,30.05,19,2,19,0.00
2013-4-9,85,66,48,57,51,45,93,63,32,30.20,30.05,16,2,16,0.00
2013-4-10,90,71,52,59,54,48,92,60,24,30.10,29.92,17,2,17,0.00
2013-4-11,72,63,56,60,56,52,88,77,64,29.95,29.77,9,0,9,0.00
2013-4-12,77,67,60,65,54,36,96,68,27,29.83,29.65,21,3,21,1.00
2013-4-13,74,61,47,44,35,27,72,40,20,30.05,29.81,31,3,31,0.00
2013-4-14,77,60,38,49,40,35,89,52,25,30.16,30.04,16,2,16,0.00
2013-4-15,65,57,52,54,52,44,94,83,50,30.31,30.09,10,1,11,0.29
2013-4-16,76,63,56,64,57,53,96,83,58,30.37,30.21,11,1,11,0.01
2013-4-17,80,66,54,64,58,53,97,79,51,30.27,30.15,10,1,10,0.00
2013-4-18,77,67,58,64,59,55,95,77,52,30.21,30.03,16,2,16,0.00
2013-4-19,71,65,52,65,59,39,94,80,61,30.03,29.67,21,3,21,0.66
2013-4-20,60,50,40,40,31,24,81,50,26,30.38,29.89,20,3,20,0.00
2013-4-21,58,47,34,39,32,24,87,59,37,30.61,30.38,14,1,14,0.00
2013-4-22,61,48,31,38,32,26,94,60,27,30.59,30.38,15,1,15,0.01
2013-4-23,67,55,46,49,44,37,89,65,48,30.41,30.16,10,1,10,0.00
2013-4-24,74,60,42,58,50,41,97,73,47,30.19,29.95,25,3,25,0.00
2013-4-25,68,53,41,46,32,19,75,50,17,30.39,30.11,19,3,19,0.00
2013-4-26,67,52,34,44,36,31,93,61,30,30.53,30.39,11,1,11,0.00
2013-4-27,68,56,46,52,46,40,87,69,40,30.45,30.32,8,1,8,0.00
2013-4-28,55,53,51,53,51,49,95,92,85,30.32,30.13,11,1,11,0.15
2013-4-29,67,56,50,58,53,49,96,88,68,30.18,30.05,5,0,9,0.14
2013-4-30,70,60,54,59,55,53,96,87,66,30.29,30.11,13,0,13,0.11
2013-5-1,71,60,55,58,52,43,93,75,41,30.43,30.28,18,1,18,0.00
2013-5-2,70,60,48,52,46,40,87,61,40,30.44,30.32,13,1,13,0.00
2013-5-3,65,54,42,53,47,41,96,77,55,30.40,30.28,14,1,14,0.00
2013-5-4,62,53,46,49,45,41,87,74,56,30.33,30.19,15,2,15,0.00
2013-5-5,56,52,45,50,44,33,91,75,60,30.23,30.09,14,2,14,0.06
2013-5-6,57,54,51,55,52,49,96,94,85,30.14,29.94,12,2,12,1.62
2013-5-7,62,55,48,56,53,47,97,93,73,30.01,29.92,12,1,12,0.88
2013-5-8,61,53,46,56,51,45,97,94,81,30.08,30.00,7,0,7,0.44
2013-5-9,80,60,43,59,51,42,98,75,37,30.12,30.04,12,1,12,0.03
2013-5-10,82,65,50,64,56,49,97,77,45,30.12,29.96,23,2,23,0.17
2013-5-11,77,64,59,65,60,58,97,88,59,30.00,29.81,20,1,20,0.52
2013-5-12,62,55,41,58,41,30,96,63,31,30.13,29.86,20,2,20,0.00
2013-5-13,61,48,35,42,34,26,95,62,29,30.27,30.13,16,2,16,0.00
2013-5-14,70,52,32,48,39,31,96,66,28,30.32,30.10,11,1,11,0.00
2013-5-15,50,49,48,47,46,45,92,91,89,30.11,30.07,0,0,0,0.00
2013-5-19,66,65,65,65,64,64,97,97,97,30.15,30.14,0,0,2,0.54
2013-5-20,78,69,64,71,66,63,98,91,74,30.17,30.05,10,0,10,0.25
2013-5-21,87,74,65,72,67,63,97,82,50,30.08,29.94,8,0,8,0.02
2013-5-22,84,70,59,72,65,58,98,87,62,30.02,29.90,24,1,24,0.14
2013-5-23,77,68,61,70,65,60,97,90,74,29.98,29.83,21,1,21,0.13
2013-5-24,64,57,47,60,46,34,96,68,40,30.26,29.87,21,3,21,0.01
2013-5-25,68,56,39,41,35,26,90,50,21,30.34,30.23,19,2,19,0.00
2013-5-26,74,60,46,48,42,35,88,55,26,30.33,30.21,12,1,12,0.00
2013-5-27,74,59,42,58,48,40,94,69,41,30.36,30.22,8,0,8,0.00
2013-5-28,83,69,54,68,60,52,96,75,53,30.27,30.14,14,1,14,0.00
2013-5-29,86,72,56,69,62,55,97,75,47,30.24,30.16,11,1,11,0.00
2013-5-30,86,71,56,69,63,54,97,77,47,30.29,30.20,13,1,13,0.00
2013-5-31,86,72,56,69,63,55,97,76,52,30.25,30.12,13,1,13,0.00
2013-6-1,86,73,58,71,64,57,97,75,50,30.15,30.01,14,1,14,0.00
2013-6-2,75,68,61,70,65,59,97,92,81,30.04,29.94,10,0,10,0.40
2013-6-3,81,70,61,69,64,59,98,83,56,30.02,29.91,14,1,14,0.11
2013-6-4,78,68,55,64,59,53,97,77,50,30.17,30.02,9,1,9,0.00
2013-6-5,74,66,57,66,61,55,96,85,69,30.21,30.09,10,0,10,0.02
2013-6-6,67,63,60,66,62,58,97,96,92,30.10,29.88,6,0,6,2.29
2013-6-7,73,68,63,69,66,61,98,93,83,29.89,29.67,8,0,11,0.21
2013-6-8,82,69,60,68,62,59,97,82,47,30.15,29.86,8,0,8,0.08
2013-6-9,85,73,62,72,66,60,98,82,52,30.21,30.09,17,1,17,0.33
2013-6-10,80,71,65,74,68,64,98,92,72,30.12,29.88,15,1,15,0.24
2013-6-11,82,71,62,68,64,62,98,81,54,29.99,29.91,15,1,15,0.16
2013-6-12,90,79,62,75,70,61,97,76,56,30.00,29.89,10,1,10,0.11
2013-6-13,89,75,65,73,67,56,97,76,53,29.89,29.61,20,2,20,0.27
2013-6-14,77,68,58,63,56,52,92,68,50,30.09,29.80,13,2,13,0.00
2013-6-15,84,68,53,66,58,52,97,75,40,30.19,30.07,12,1,12,0.00
2013-6-16,85,72,57,72,64,56,97,78,51,30.13,30.01,12,1,12,0.00
2013-6-17,84,74,66,73,68,65,97,84,64,30.07,29.95,10,0,10,0.10
2013-6-18,74,69,62,70,67,61,97,91,78,30.00,29.85,5,1,9,0.04
2013-6-19,79,68,58,70,63,57,98,86,63,30.20,29.96,5,0,9,0.04
2013-6-20,78,70,64,68,65,62,97,86,64,30.32,30.20,8,0,8,0.01
2013-6-21,82,70,57,69,62,56,96,76,54,30.35,30.25,9,0,9,0.01
2013-6-22,84,71,56,70,64,54,96,80,57,30.32,30.18,10,0,10,0.00
2013-6-23,87,75,65,74,69,63,97,81,54,30.25,30.14,8,1,8,0.00
2013-6-24,87,75,64,74,68,63,98,82,54,30.23,30.10,9,0,11,0.00
2013-6-25,88,76,64,74,69,63,98,81,56,30.14,30.01,11,0,11,0.00
2013-6-26,89,73,64,76,68,63,97,87,58,30.03,29.92,30,0,30,0.49
2013-6-27,83,72,66,73,68,65,98,88,65,29.95,29.75,12,1,12,0.05
2013-6-28,88,77,65,73,67,59,97,74,45,29.78,29.56,16,1,16,0.00
2013-6-29,84,73,62,71,66,60,96,80,55,29.76,29.62,13,1,13,0.11
2013-6-30,85,73,66,74,69,65,98,87,64,29.90,29.74,10,0,10,0.15
2013-7-1,82,74,68,72,69,67,96,86,68,30.01,29.87,9,1,9,0.00
2013-7-2,75,72,70,72,70,68,97,94,88,30.22,30.01,11,0,11,1.15
2013-7-3,75,71,69,73,70,68,98,97,90,30.28,30.17,5,0,5,1.62
2013-7-4,84,76,69,76,72,68,97,89,68,30.31,30.22,13,1,13,1.78
2013-7-5,84,76,69,75,72,68,98,88,70,30.31,30.21,11,1,11,0.00
2013-7-6,86,76,68,74,71,68,98,85,58,30.28,30.15,10,1,10,0.04
2013-7-7,84,74,68,75,70,67,98,90,71,30.20,30.11,13,1,13,0.43
2013-7-8,85,74,65,74,69,64,98,84,57,30.22,30.13,8,0,8,0.03
2013-7-9,87,76,68,76,71,67,98,84,56,30.19,30.08,7,0,7,0.00
2013-7-10,86,75,70,77,72,68,97,90,69,30.12,29.98,14,0,14,1.36
2013-7-11,83,74,67,76,71,65,98,91,71,30.00,29.92,4,0,7,0.56
2013-7-12,75,69,66,68,65,64,97,87,73,30.12,29.93,9,1,9,0.24
2013-7-13,78,72,67,72,68,64,97,89,78,30.26,30.10,10,0,10,0.30
2013-7-14,86,76,70,75,71,69,96,84,63,30.38,30.26,12,1,12,0.02
2013-7-15,89,78,68,77,71,67,98,82,57,30.39,30.29,6,0,6,0.00
2013-7-16,92,77,66,78,70,66,98,81,53,30.33,30.24,8,1,9,0.00
2013-7-17,90,79,71,80,73,70,96,83,61,30.29,30.18,10,0,10,0.16
2013-7-18,92,79,69,80,74,68,98,84,57,30.21,30.08,6,0,6,0.00
2013-7-19,74,71,69,72,70,68,97,96,95,30.13,30.08,0,0,0,0.00
2013-7-21,79,74,0,74,71,-4,95,90,83,30.00,29.97,1,0,1,0.00
2013-7-22,87,76,70,76,72,69,98,88,65,30.00,29.83,12,1,12,0.04
2013-7-23,88,77,68,74,70,67,97,80,52,29.84,29.75,7,1,11,0.00
2013-7-24,86,75,66,72,68,64,98,79,48,29.94,29.77,10,1,10,0.00
2013-7-25,82,72,66,68,64,58,93,75,56,30.10,29.93,7,0,7,0.01
2013-7-26,81,72,61,71,65,59,97,82,64,30.17,30.07,8,1,8,0.00
2013-7-27,72,69,68,69,68,66,97,94,90,30.10,29.98,9,0,9,0.37
2013-7-28,83,73,66,71,68,65,98,84,58,30.05,29.96,9,0,9,0.00
2013-7-29,80,69,58,66,59,55,97,74,44,30.26,30.05,9,1,9,0.00
2013-7-30,81,68,54,67,60,52,97,78,50,30.31,30.21,7,0,7,0.00
2013-7-31,76,68,62,70,65,61,97,90,73,30.22,30.07,2,0,2,0.06
2013-8-1,84,72,65,71,67,63,97,85,60,30.07,29.90,11,1,11,0.04
2013-8-2,84,71,60,69,63,58,98,79,47,30.08,29.98,8,1,8,0.00
2013-8-3,86,70,60,73,65,58,97,85,54,30.07,29.97,8,0,8,0.00
2013-8-4,80,72,63,66,62,56,96,74,45,30.12,29.98,11,1,11,0.00
2013-8-5,78,68,56,67,61,55,97,80,57,30.17,30.07,8,0,9,0.00
2013-8-6,82,72,65,72,68,63,95,86,66,30.09,30.02,9,0,9,0.00
2013-8-7,79,72,69,74,70,67,97,92,81,30.12,30.07,9,0,9,0.02
2013-8-8,83,73,68,76,71,67,98,93,76,30.10,30.04,7,0,7,0.99
2013-8-9,88,78,68,79,73,68,98,86,65,30.06,29.99,15,1,15,0.01
2013-8-10,89,77,69,78,72,68,98,85,59,30.13,30.05,10,0,10,0.01
2013-8-11,88,76,70,75,72,69,97,88,61,30.16,30.05,11,0,11,0.51
2013-8-12,87,76,67,77,71,66,98,85,57,30.10,29.98,11,0,11,0.06
2013-8-13,81,72,67,74,70,65,98,91,76,30.00,29.84,11,0,11,0.23
2013-8-14,75,68,60,65,57,51,95,71,47,30.18,29.91,12,1,12,0.00
2013-8-15,75,62,50,61,55,49,97,79,49,30.26,30.16,8,0,8,0.00
2013-8-16,75,62,49,62,56,48,98,82,57,30.27,30.19,7,0,7,0.00
2013-8-17,70,61,53,63,58,52,98,90,67,30.31,30.25,9,0,9,0.21
2013-8-18,71,65,62,67,63,61,97,94,83,30.30,30.22,7,0,7,0.98
2013-8-19,75,68,63,70,65,62,98,93,82,30.27,30.14,7,0,7,0.09
2013-8-20,82,72,64,73,68,63,98,89,72,30.25,30.16,7,0,7,0.01
2013-8-21,82,73,65,74,70,64,98,90,71,30.27,30.15,7,0,7,0.04
2013-8-22,85,74,62,73,68,61,98,84,60,30.19,30.04,9,0,9,0.03
2013-8-23,83,70,62,72,67,60,98,89,64,30.19,30.00,14,1,14,0.21
2013-8-24,80,68,57,66,60,56,98,80,50,30.39,30.19,11,0,11,0.01
2013-8-25,80,67,56,66,59,54,98,80,44,30.47,30.35,8,0,8,0.00
2013-8-26,84,68,53,70,60,52,98,81,45,30.40,30.15,6,0,6,0.01
2013-8-27,85,72,60,75,67,59,98,85,60,30.15,30.00,13,0,13,0.00
2013-8-28,82,73,68,77,71,67,97,94,78,30.04,29.89,7,0,7,0.19
2013-8-29,86,76,68,76,71,66,98,87,64,30.08,29.89,9,1,9,0.00
2013-8-30,84,73,65,74,69,64,98,88,63,30.11,29.97,5,0,8,0.00
2013-8-31,88,72,63,76,68,62,98,89,62,29.99,29.88,16,1,20,0.30
2013-9-1,86,73,64,77,70,63,98,90,66,29.94,29.83,11,0,14,0.30
2013-9-2,87,74,64,75,69,63,98,84,57,29.93,29.82,12,1,12,0.01
2013-9-3,85,74,63,71,66,59,98,78,50,30.02,29.84,11,1,11,0.00
2013-9-4,81,68,55,67,60,54,98,78,47,30.16,30.02,8,1,8,0.00
2013-9-5,84,68,54,65,60,53,98,77,43,30.20,30.10,11,1,11,0.00
2013-9-6,76,65,56,62,58,54,97,80,50,30.28,30.17,8,0,8,0.01
2013-9-7,80,65,52,69,60,50,98,85,61,30.22,30.03,9,1,9,0.00
2013-9-8,85,70,57,73,64,56,97,85,60,30.05,29.96,7,0,7,0.01
2013-9-9,79,69,62,70,65,61,98,88,67,30.23,30.05,8,0,8,0.00
2013-9-10,88,74,64,77,69,63,98,87,62,30.28,30.18,9,0,9,0.00
2013-9-11,90,75,64,75,69,63,98,84,54,30.24,30.10,8,0,8,0.00
2013-9-12,88,75,65,74,68,63,98,81,53,30.10,29.85,8,0,10,0.00
2013-9-13,76,69,60,65,56,48,94,65,41,29.99,29.81,16,2,16,0.00
2013-9-14,72,58,47,56,50,46,97,75,49,30.23,29.99,9,1,9,0.00
2013-9-15,76,60,44,64,54,43,98,82,55,30.32,30.18,10,1,10,0.00
2013-9-16,76,63,54,65,58,51,98,83,62,30.31,30.16,12,1,12,0.00
2013-9-17,72,57,44,58,51,43,98,82,52,30.44,30.30,10,0,10,0.00
2013-9-18,68,56,45,59,52,44,98,86,65,30.41,30.26,7,0,7,0.01
2013-9-19,71,64,58,65,60,57,95,88,75,30.28,30.14,6,0,6,0.00
2013-9-20,68,65,61,66,63,60,97,94,90,30.15,30.02,2,0,5,0.36
2013-9-21,68,64,57,67,64,56,98,97,95,30.02,29.76,7,0,7,0.68
2013-9-22,73,62,50,61,55,49,98,79,54,30.00,29.82,12,1,12,0.01
2013-9-23,70,59,52,59,54,50,97,84,62,30.15,30.00,7,0,7,0.00
2013-9-24,74,62,53,62,56,51,97,84,63,30.18,30.00,7,0,7,0.00
2013-9-25,68,61,51,62,58,50,98,90,75,30.04,29.95,5,0,5,0.02
2013-9-26,75,64,53,62,57,52,98,82,51,30.14,29.98,10,0,10,0.00
2013-9-27,74,60,46,60,53,45,98,82,52,30.29,30.14,8,0,8,0.00
2013-9-28,68,59,49,57,55,48,97,87,64,30.36,30.27,7,0,7,0.00
2013-9-29,71,57,46,58,51,45,98,83,54,30.28,30.13,4,0,9,0.00
2013-9-30,76,61,49,61,54,48,98,82,50,30.18,30.05,6,0,7,0.00
2013-10-1,80,62,50,65,57,49,98,84,52,30.19,30.09,6,0,7,0.00
2013-10-2,81,64,49,65,57,48,98,82,51,30.21,30.11,9,0,9,0.01
2013-10-3,82,65,53,68,60,52,98,84,53,30.20,30.12,8,0,8,0.00
2013-10-4,85,67,54,69,61,53,98,83,48,30.19,30.10,11,0,11,0.00
2013-10-5,82,63,56,69,60,55,98,90,58,30.19,30.14,4,0,4,0.00
2013-10-7,69,62,49,64,56,47,97,81,61,30.14,29.85,9,1,20,1.75
2013-10-8,67,57,48,50,47,44,94,69,48,30.34,30.12,12,1,12,0.00
2013-10-9,64,55,46,50,47,44,96,76,55,30.36,30.25,17,2,17,0.00
2013-10-10,65,58,51,58,53,46,92,84,75,30.25,30.05,23,4,23,0.31
2013-10-11,72,64,59,62,58,54,87,80,69,30.05,29.98,16,2,16,0.00
2013-10-12,67,63,60,62,59,56,96,88,82,30.19,30.04,9,1,9,0.06
2013-10-13,67,62,59,62,59,57,97,89,82,30.33,30.18,11,1,11,0.06
2013-10-14,70,61,56,61,58,54,97,90,70,30.36,30.25,6,0,6,0.12
2013-10-15,71,57,45,59,52,44,98,85,51,30.31,30.16,9,0,9,0.00
2013-10-16,71,61,53,61,57,51,97,86,67,30.18,30.00,8,0,8,0.00
2013-10-17,66,61,56,64,59,52,98,93,76,30.01,29.85,13,0,13,0.07
2013-10-18,66,56,46,52,46,41,95,70,46,30.12,29.97,11,1,11,0.00
2013-10-19,59,52,45,55,49,44,97,89,66,30.07,29.89,10,0,10,0.00
2013-10-20,63,49,36,46,38,34,95,70,39,30.20,30.01,15,1,15,0.00
2013-10-21,66,48,32,51,43,31,97,83,55,30.26,30.06,10,1,10,0.00
2013-10-22,67,55,44,52,48,43,97,79,53,30.07,29.87,13,1,13,0.01
2013-10-23,59,50,42,50,43,30,96,79,51,30.07,29.77,21,2,21,0.09
2013-10-24,49,42,31,36,32,29,93,67,50,30.28,30.07,15,2,15,0.00
2013-10-25,50,40,29,31,28,26,94,66,41,30.46,30.27,20,2,20,0.00
2013-10-26,57,41,23,40,30,21,95,68,33,30.45,30.11,11,1,11,0.01
2013-10-27,65,49,33,45,38,31,95,69,37,30.20,30.09,20,1,20,0.00
2013-10-28,48,36,34,44,35,33,97,95,88,30.34,30.20,4,0,4,0.00
2013-10-30,70,62,53,62,58,52,95,87,70,30.33,30.20,8,0,8,0.06
2013-10-31,68,61,54,60,57,54,98,86,69,30.24,29.87,8,1,14,0.00
2013-11-1,76,66,52,62,58,47,95,75,41,29.87,29.66,22,2,22,0.06
2013-11-2,66,56,42,49,40,32,94,58,34,30.03,29.73,17,2,17,0.00
2013-11-3,57,48,34,40,35,31,90,61,42,30.49,30.02,17,2,17,0.00
2013-11-4,50,39,29,34,30,27,95,71,45,30.69,30.48,8,0,8,0.00
2013-11-5,53,44,31,44,36,28,90,75,56,30.71,30.56,5,0,5,0.00
2013-11-6,67,53,45,52,48,43,94,84,58,30.56,30.18,10,1,10,0.00
2013-11-7,62,49,42,55,40,26,97,75,49,30.23,30.04,17,3,21,0.01
2013-11-8,50,40,27,31,26,24,89,60,36,30.44,30.23,21,3,21,0.00
2013-11-9,56,37,24,32,28,22,94,72,37,30.47,30.23,12,1,12,0.00
2013-11-10,65,50,29,39,30,21,92,51,19,30.37,30.13,25,4,25,0.00
2013-11-11,59,42,26,33,29,23,89,62,29,30.42,30.18,11,1,11,0.00
2013-11-12,55,42,30,38,25,13,86,54,33,30.54,30.08,19,4,19,0.00
2013-11-13,43,32,24,19,16,12,79,53,30,30.65,30.52,13,2,13,0.00
2013-11-14,60,37,22,25,20,11,83,57,17,30.56,30.38,10,1,10,0.00
2013-11-15,60,42,23,49,31,20,96,71,26,30.42,30.28,9,0,9,0.48
2013-11-16,54,51,47,52,50,46,97,96,90,30.36,30.30,3,0,5,0.08
2013-11-17,58,55,52,58,54,51,98,98,97,30.31,29.89,7,0,7,0.16
2013-11-18,64,59,49,60,38,26,98,48,27,30.07,29.83,20,4,20,0.13
2013-11-19,49,43,33,29,27,25,79,53,41,30.43,30.05,19,3,19,0.00
2013-11-20,47,37,30,29,27,24,89,68,43,30.60,30.42,10,1,10,0.00
2013-11-21,49,44,40,43,37,28,86,76,65,30.63,30.50,5,0,5,0.00
2013-11-22,67,55,44,57,50,41,94,83,67,30.50,30.13,9,0,9,0.00
2013-11-23,59,47,33,50,31,14,73,55,30,30.33,30.13,23,5,23,0.00
2013-11-24,33,27,19,14,6,0,69,41,27,30.66,30.32,24,4,24,0.00
2013-11-25,36,27,17,22,13,6,80,56,36,30.67,30.47,9,1,9,0.00
2013-11-26,45,36,30,43,33,19,97,91,57,30.49,29.71,12,0,12,2.05
2013-11-27,45,36,26,43,28,12,97,74,54,30.25,29.64,25,5,25,0.07
2013-11-28,40,29,22,23,17,13,92,63,38,30.57,30.24,25,2,25,0.00
2013-11-29,46,30,19,25,21,16,92,73,42,30.79,30.56,11,1,11,0.00
2013-11-30,40,28,18,25,22,16,94,78,53,30.79,30.49,8,0,8,0.00
2013-12-1,56,32,17,33,24,15,95,76,34,30.49,30.14,9,0,9,0.00
2013-12-2,53,38,25,40,33,23,95,82,57,30.14,29.94,5,0,5,0.00
2013-12-3,58,42,30,44,37,29,96,84,57,30.08,29.96,10,0,10,0.00
2013-12-4,60,51,38,53,47,36,96,88,72,30.16,30.06,7,0,7,0.00
2013-12-5,64,58,53,61,56,51,97,93,87,30.16,30.03,7,0,7,0.06
2013-12-6,72,64,50,66,61,48,98,90,72,30.12,29.92,11,1,11,1.02
2013-12-7,50,43,38,48,37,30,94,79,69,30.58,30.10,11,2,11,0.09
2013-12-8,38,31,28,30,28,25,95,87,71,30.60,30.38,10,1,10,0.05
2013-12-9,46,37,31,44,36,30,97,94,89,30.38,30.15,5,0,5,0.58
2013-12-10,44,37,32,41,30,18,97,77,53,30.37,30.06,13,2,19,0.35
2013-12-11,48,34,24,27,21,16,89,61,33,30.52,30.35,13,1,13,0.00
2013-12-12,38,31,22,21,14,7,75,50,29,30.52,30.38,20,3,20,0.00
2013-12-13,48,34,22,28,19,12,85,57,31,30.46,30.34,14,1,14,0.00
2013-12-14,39,35,32,34,32,27,96,89,73,30.40,29.86,9,0,9,0.36
2013-12-15,46,39,34,38,31,24,97,74,58,30.12,29.78,20,3,20,0.00
2013-12-16,46,37,29,35,30,25,93,75,58,30.23,30.11,8,1,12,0.00
2013-12-17,57,38,26,39,30,24,96,77,45,30.20,29.99,28,3,28,0.07
2013-12-18,45,35,26,24,21,18,86,59,36,30.36,30.09,20,2,21,0.00
2013-12-19,66,41,24,34,27,20,90,63,23,30.34,30.25,16,1,16,0.00
2013-12-20,62,42,30,40,34,28,91,74,40,30.26,30.15,5,0,7,0.00
2013-12-21,67,54,37,61,48,35,95,84,69,30.18,30.02,15,2,15,0.00
2013-12-22,67,62,57,64,59,55,98,91,68,30.11,29.98,20,2,20,0.72
2013-12-23,61,52,36,60,47,27,98,83,67,30.29,30.01,21,2,21,0.80
2013-12-24,39,32,23,27,20,7,72,60,44,30.58,30.28,14,4,25,0.00
2013-12-25,35,24,14,18,13,8,87,64,38,30.66,30.48,10,1,10,0.00
2013-12-26,48,30,17,28,21,15,90,71,39,30.51,30.35,14,1,14,0.00
2013-12-27,52,32,20,28,21,18,91,70,29,30.57,30.45,10,1,10,0.00
2013-12-28,57,36,19,38,26,17,94,71,28,30.50,30.26,9,0,11,0.08
2013-12-29,52,44,39,47,40,38,97,86,69,30.26,29.75,12,2,17,1.09
2013-12-30,48,42,35,39,33,27,89,71,60,30.24,29.98,13,2,13,0.00
2013-12-31,45,35,24,30,23,17,92,64,33,30.45,30.21,14,2,22,0.00
2014-1-1,49,32,21,30,23,19,93,72,37,30.49,30.22,11,1,11,0.00
2014-1-2,39,32,24,36,29,20,95,89,65,30.22,29.73,21,1,21,0.15